sensor_id;sensor_type;location;lat;lon;timestamp;P1;durP1;ratioP1;P2;durP2;ratioP2
19754;SDS011;10036;47.812;9.274;2023-06-26T00:00:07;9.10;;;6.80;;
19754;SDS011;10036;47.812;9.274;2023-06-26T00:02:37;8.15;;;7.28;;
19754;SDS011;10036;47.812;9.274;2023-06-26T00:05:04;8.77;;;7.38;;
19754;SDS011;10036;47.812;9.274;2023-06-26T00:07:31;9.20;;;7.50;;
19754;SDS011;10036;47.812;9.274;2023-06-26T00:10:00;8.27;;;7.35;;
19754;SDS011;10036;47.812;9.274;2023-06-26T00:12:27;9.05;;;8.10;;
19754;SDS011;10036;47.812;9.274;2023-06-26T00:14:55;9.27;;;7.82;;
19754;SDS011;10036;47.812;9.274;2023-06-26T00:17:22;9.73;;;8.05;;
19754;SDS011;10036;47.812;9.274;2023-06-26T00:19:50;8.27;;;7.20;;
19754;SDS011;10036;47.812;9.274;2023-06-26T00:22:17;9.90;;;7.82;;
19754;SDS011;10036;47.812;9.274;2023-06-26T00:24:44;10.18;;;7.78;;
19754;SDS011;10036;47.812;9.274;2023-06-26T00:27:11;10.75;;;8.00;;
19754;SDS011;10036;47.812;9.274;2023-06-26T00:29:38;9.63;;;8.57;;
19754;SDS011;10036;47.812;9.274;2023-06-26T00:32:05;10.75;;;8.60;;
19754;SDS011;10036;47.812;9.274;2023-06-26T00:34:32;11.32;;;8.50;;
19754;SDS011;10036;47.812;9.274;2023-06-26T00:37:01;8.85;;;7.55;;
19754;SDS011;10036;47.812;9.274;2023-06-26T00:39:28;8.52;;;7.60;;
19754;SDS011;10036;47.812;9.274;2023-06-26T00:41:54;10.63;;;7.28;;
19754;SDS011;10036;47.812;9.274;2023-06-26T00:44:21;10.88;;;6.78;;
19754;SDS011;10036;47.812;9.274;2023-06-26T00:46:48;10.45;;;7.70;;
19754;SDS011;10036;47.812;9.274;2023-06-26T00:49:15;10.25;;;7.10;;
19754;SDS011;10036;47.812;9.274;2023-06-26T00:51:43;8.77;;;7.75;;
19754;SDS011;10036;47.812;9.274;2023-06-26T00:54:11;10.88;;;8.32;;
19754;SDS011;10036;47.812;9.274;2023-06-26T00:56:44;12.13;;;8.35;;
19754;SDS011;10036;47.812;9.274;2023-06-26T00:59:11;10.50;;;8.10;;
19754;SDS011;10036;47.812;9.274;2023-06-26T01:01:38;9.93;;;7.50;;
19754;SDS011;10036;47.812;9.274;2023-06-26T01:04:05;10.00;;;8.60;;
19754;SDS011;10036;47.812;9.274;2023-06-26T01:06:33;10.50;;;8.43;;
19754;SDS011;10036;47.812;9.274;2023-06-26T01:09:01;8.90;;;7.68;;
19754;SDS011;10036;47.812;9.274;2023-06-26T01:11:30;9.48;;;8.30;;
19754;SDS011;10036;47.812;9.274;2023-06-26T01:13:57;10.40;;;8.50;;
19754;SDS011;10036;47.812;9.274;2023-06-26T01:16:27;10.65;;;8.35;;
19754;SDS011;10036;47.812;9.274;2023-06-26T01:18:55;10.20;;;8.60;;
19754;SDS011;10036;47.812;9.274;2023-06-26T01:21:23;9.38;;;7.95;;
19754;SDS011;10036;47.812;9.274;2023-06-26T01:23:58;10.57;;;8.60;;
19754;SDS011;10036;47.812;9.274;2023-06-26T01:26:35;10.00;;;8.43;;
19754;SDS011;10036;47.812;9.274;2023-06-26T01:29:06;9.43;;;8.43;;
19754;SDS011;10036;47.812;9.274;2023-06-26T01:31:36;10.75;;;8.32;;
19754;SDS011;10036;47.812;9.274;2023-06-26T01:34:03;10.98;;;9.38;;
19754;SDS011;10036;47.812;9.274;2023-06-26T01:36:30;10.02;;;8.15;;
19754;SDS011;10036;47.812;9.274;2023-06-26T01:38:57;9.63;;;8.35;;
19754;SDS011;10036;47.812;9.274;2023-06-26T01:41:24;8.90;;;7.90;;
19754;SDS011;10036;47.812;9.274;2023-06-26T01:44:03;9.93;;;8.13;;
19754;SDS011;10036;47.812;9.274;2023-06-26T01:46:54;9.27;;;8.00;;
19754;SDS011;10036;47.812;9.274;2023-06-26T01:49:30;9.20;;;8.07;;
19754;SDS011;10036;47.812;9.274;2023-06-26T01:52:08;9.18;;;7.97;;
19754;SDS011;10036;47.812;9.274;2023-06-26T01:54:45;9.00;;;7.88;;
19754;SDS011;10036;47.812;9.274;2023-06-26T01:57:18;8.90;;;7.68;;
19754;SDS011;10036;47.812;9.274;2023-06-26T01:59:49;9.45;;;8.05;;
19754;SDS011;10036;47.812;9.274;2023-06-26T02:02:18;10.23;;;8.05;;
19754;SDS011;10036;47.812;9.274;2023-06-26T02:04:45;9.85;;;7.35;;
19754;SDS011;10036;47.812;9.274;2023-06-26T02:07:13;10.48;;;7.95;;
19754;SDS011;10036;47.812;9.274;2023-06-26T02:09:40;9.10;;;7.43;;
19754;SDS011;10036;47.812;9.274;2023-06-26T02:12:08;8.45;;;7.53;;
19754;SDS011;10036;47.812;9.274;2023-06-26T02:14:35;9.70;;;7.60;;
19754;SDS011;10036;47.812;9.274;2023-06-26T02:17:04;10.27;;;8.45;;
19754;SDS011;10036;47.812;9.274;2023-06-26T02:19:31;11.27;;;8.38;;
19754;SDS011;10036;47.812;9.274;2023-06-26T02:21:58;10.60;;;8.20;;
19754;SDS011;10036;47.812;9.274;2023-06-26T02:24:25;12.68;;;8.50;;
19754;SDS011;10036;47.812;9.274;2023-06-26T02:26:55;9.23;;;8.00;;
19754;SDS011;10036;47.812;9.274;2023-06-26T02:29:22;8.70;;;7.80;;
19754;SDS011;10036;47.812;9.274;2023-06-26T02:31:48;11.20;;;7.80;;
19754;SDS011;10036;47.812;9.274;2023-06-26T02:34:17;10.25;;;8.13;;
19754;SDS011;10036;47.812;9.274;2023-06-26T02:36:43;13.43;;;8.95;;
19754;SDS011;10036;47.812;9.274;2023-06-26T02:39:10;12.70;;;8.95;;
19754;SDS011;10036;47.812;9.274;2023-06-26T02:41:37;12.15;;;8.40;;
19754;SDS011;10036;47.812;9.274;2023-06-26T02:44:04;12.05;;;7.95;;
19754;SDS011;10036;47.812;9.274;2023-06-26T02:46:31;10.60;;;8.25;;
19754;SDS011;10036;47.812;9.274;2023-06-26T02:48:58;10.55;;;8.13;;
19754;SDS011;10036;47.812;9.274;2023-06-26T02:51:26;11.15;;;7.63;;
19754;SDS011;10036;47.812;9.274;2023-06-26T02:53:53;9.48;;;7.10;;
19754;SDS011;10036;47.812;9.274;2023-06-26T02:56:20;9.57;;;7.80;;
19754;SDS011;10036;47.812;9.274;2023-06-26T02:58:47;10.30;;;8.00;;
19754;SDS011;10036;47.812;9.274;2023-06-26T03:01:13;9.70;;;7.80;;
19754;SDS011;10036;47.812;9.274;2023-06-26T03:03:40;12.27;;;9.18;;
19754;SDS011;10036;47.812;9.274;2023-06-26T03:06:07;11.30;;;8.13;;
19754;SDS011;10036;47.812;9.274;2023-06-26T03:08:36;14.60;;;8.07;;
19754;SDS011;10036;47.812;9.274;2023-06-26T03:11:04;9.75;;;8.35;;
19754;SDS011;10036;47.812;9.274;2023-06-26T03:13:31;10.32;;;8.65;;
19754;SDS011;10036;47.812;9.274;2023-06-26T03:15:58;11.77;;;8.60;;
19754;SDS011;10036;47.812;9.274;2023-06-26T03:18:25;10.25;;;8.75;;
19754;SDS011;10036;47.812;9.274;2023-06-26T03:20:52;12.75;;;9.18;;
19754;SDS011;10036;47.812;9.274;2023-06-26T03:23:20;12.73;;;8.32;;
19754;SDS011;10036;47.812;9.274;2023-06-26T03:25:48;11.70;;;8.55;;
19754;SDS011;10036;47.812;9.274;2023-06-26T03:28:15;11.45;;;7.93;;
19754;SDS011;10036;47.812;9.274;2023-06-26T03:30:42;10.23;;;8.57;;
19754;SDS011;10036;47.812;9.274;2023-06-26T03:33:09;10.07;;;8.13;;
19754;SDS011;10036;47.812;9.274;2023-06-26T03:35:36;10.75;;;7.97;;
19754;SDS011;10036;47.812;9.274;2023-06-26T03:38:03;11.43;;;8.30;;
19754;SDS011;10036;47.812;9.274;2023-06-26T03:40:31;11.40;;;8.40;;
19754;SDS011;10036;47.812;9.274;2023-06-26T03:42:59;12.10;;;8.68;;
19754;SDS011;10036;47.812;9.274;2023-06-26T03:45:26;11.57;;;8.45;;
19754;SDS011;10036;47.812;9.274;2023-06-26T03:47:52;11.55;;;8.10;;
19754;SDS011;10036;47.812;9.274;2023-06-26T03:50:19;11.38;;;8.30;;
19754;SDS011;10036;47.812;9.274;2023-06-26T03:52:46;9.82;;;8.45;;
19754;SDS011;10036;47.812;9.274;2023-06-26T03:55:14;10.35;;;8.73;;
19754;SDS011;10036;47.812;9.274;2023-06-26T03:57:41;11.15;;;8.55;;
19754;SDS011;10036;47.812;9.274;2023-06-26T04:00:10;11.75;;;8.43;;
19754;SDS011;10036;47.812;9.274;2023-06-26T04:02:38;12.13;;;8.95;;
19754;SDS011;10036;47.812;9.274;2023-06-26T04:05:05;11.18;;;8.60;;
19754;SDS011;10036;47.812;9.274;2023-06-26T04:07:32;11.32;;;8.73;;
19754;SDS011;10036;47.812;9.274;2023-06-26T04:10:00;10.70;;;8.98;;
19754;SDS011;10036;47.812;9.274;2023-06-26T04:12:27;11.05;;;8.82;;
19754;SDS011;10036;47.812;9.274;2023-06-26T04:14:54;10.55;;;8.60;;
19754;SDS011;10036;47.812;9.274;2023-06-26T04:17:22;10.52;;;7.88;;
19754;SDS011;10036;47.812;9.274;2023-06-26T04:19:49;10.38;;;8.57;;
19754;SDS011;10036;47.812;9.274;2023-06-26T04:22:16;10.57;;;8.95;;
19754;SDS011;10036;47.812;9.274;2023-06-26T04:24:43;13.85;;;9.38;;
19754;SDS011;10036;47.812;9.274;2023-06-26T04:27:11;11.77;;;8.98;;
19754;SDS011;10036;47.812;9.274;2023-06-26T04:29:39;9.90;;;8.15;;
19754;SDS011;10036;47.812;9.274;2023-06-26T04:32:06;12.65;;;8.90;;
19754;SDS011;10036;47.812;9.274;2023-06-26T04:34:34;10.75;;;8.90;;
19754;SDS011;10036;47.812;9.274;2023-06-26T04:37:06;11.63;;;8.90;;
19754;SDS011;10036;47.812;9.274;2023-06-26T04:39:34;10.88;;;8.85;;
19754;SDS011;10036;47.812;9.274;2023-06-26T04:42:02;10.38;;;9.27;;
19754;SDS011;10036;47.812;9.274;2023-06-26T04:44:29;11.43;;;9.40;;
19754;SDS011;10036;47.812;9.274;2023-06-26T04:46:56;12.80;;;8.60;;
19754;SDS011;10036;47.812;9.274;2023-06-26T04:49:22;9.38;;;8.38;;
19754;SDS011;10036;47.812;9.274;2023-06-26T04:51:51;10.50;;;8.80;;
19754;SDS011;10036;47.812;9.274;2023-06-26T04:54:18;11.45;;;8.68;;
19754;SDS011;10036;47.812;9.274;2023-06-26T04:56:45;13.27;;;9.00;;
19754;SDS011;10036;47.812;9.274;2023-06-26T04:59:13;14.80;;;9.60;;
19754;SDS011;10036;47.812;9.274;2023-06-26T05:01:40;11.00;;;8.15;;
19754;SDS011;10036;47.812;9.274;2023-06-26T05:04:07;12.30;;;9.50;;
19754;SDS011;10036;47.812;9.274;2023-06-26T05:06:34;14.10;;;9.98;;
19754;SDS011;10036;47.812;9.274;2023-06-26T05:09:02;11.25;;;8.68;;
19754;SDS011;10036;47.812;9.274;2023-06-26T05:11:29;12.90;;;8.65;;
19754;SDS011;10036;47.812;9.274;2023-06-26T05:13:56;11.88;;;8.75;;
19754;SDS011;10036;47.812;9.274;2023-06-26T05:16:23;15.05;;;9.38;;
19754;SDS011;10036;47.812;9.274;2023-06-26T05:18:50;13.43;;;9.38;;
19754;SDS011;10036;47.812;9.274;2023-06-26T05:21:17;12.70;;;9.70;;
19754;SDS011;10036;47.812;9.274;2023-06-26T05:23:44;14.02;;;9.38;;
19754;SDS011;10036;47.812;9.274;2023-06-26T05:26:14;13.43;;;10.10;;
19754;SDS011;10036;47.812;9.274;2023-06-26T05:28:41;15.13;;;9.05;;
19754;SDS011;10036;47.812;9.274;2023-06-26T05:31:13;11.07;;;9.50;;
19754;SDS011;10036;47.812;9.274;2023-06-26T05:33:40;14.63;;;9.70;;
19754;SDS011;10036;47.812;9.274;2023-06-26T05:36:10;15.07;;;10.60;;
19754;SDS011;10036;47.812;9.274;2023-06-26T05:38:39;12.45;;;10.18;;
19754;SDS011;10036;47.812;9.274;2023-06-26T05:41:07;13.52;;;10.35;;
19754;SDS011;10036;47.812;9.274;2023-06-26T05:43:35;12.63;;;9.98;;
19754;SDS011;10036;47.812;9.274;2023-06-26T05:46:02;11.30;;;8.77;;
19754;SDS011;10036;47.812;9.274;2023-06-26T05:48:29;16.00;;;10.35;;
19754;SDS011;10036;47.812;9.274;2023-06-26T05:50:56;13.52;;;10.32;;
19754;SDS011;10036;47.812;9.274;2023-06-26T05:53:23;12.98;;;9.55;;
19754;SDS011;10036;47.812;9.274;2023-06-26T05:55:51;10.35;;;9.23;;
19754;SDS011;10036;47.812;9.274;2023-06-26T05:58:18;11.40;;;8.27;;
19754;SDS011;10036;47.812;9.274;2023-06-26T06:00:49;12.90;;;9.10;;
19754;SDS011;10036;47.812;9.274;2023-06-26T06:03:16;9.95;;;8.65;;
19754;SDS011;10036;47.812;9.274;2023-06-26T06:05:42;10.88;;;9.43;;
19754;SDS011;10036;47.812;9.274;2023-06-26T06:08:09;10.77;;;9.02;;
19754;SDS011;10036;47.812;9.274;2023-06-26T06:10:37;10.85;;;9.27;;
19754;SDS011;10036;47.812;9.274;2023-06-26T06:13:03;9.45;;;8.30;;
19754;SDS011;10036;47.812;9.274;2023-06-26T06:15:30;10.93;;;8.55;;
19754;SDS011;10036;47.812;9.274;2023-06-26T06:17:58;10.88;;;8.32;;
19754;SDS011;10036;47.812;9.274;2023-06-26T06:20:25;10.00;;;8.13;;
19754;SDS011;10036;47.812;9.274;2023-06-26T06:22:52;9.18;;;8.07;;
19754;SDS011;10036;47.812;9.274;2023-06-26T06:25:19;11.25;;;8.93;;
19754;SDS011;10036;47.812;9.274;2023-06-26T06:27:46;12.35;;;8.30;;
19754;SDS011;10036;47.812;9.274;2023-06-26T06:30:13;11.40;;;8.70;;
19754;SDS011;10036;47.812;9.274;2023-06-26T06:32:40;11.27;;;8.40;;
19754;SDS011;10036;47.812;9.274;2023-06-26T06:35:08;11.77;;;8.88;;
19754;SDS011;10036;47.812;9.274;2023-06-26T06:37:35;8.95;;;7.97;;
19754;SDS011;10036;47.812;9.274;2023-06-26T06:40:03;9.32;;;7.63;;
19754;SDS011;10036;47.812;9.274;2023-06-26T06:42:32;8.43;;;7.30;;
19754;SDS011;10036;47.812;9.274;2023-06-26T06:44:59;10.13;;;7.75;;
19754;SDS011;10036;47.812;9.274;2023-06-26T06:47:27;11.35;;;9.07;;
19754;SDS011;10036;47.812;9.274;2023-06-26T06:49:54;11.13;;;9.15;;
19754;SDS011;10036;47.812;9.274;2023-06-26T06:52:22;11.82;;;8.45;;
19754;SDS011;10036;47.812;9.274;2023-06-26T06:54:52;11.43;;;9.50;;
19754;SDS011;10036;47.812;9.274;2023-06-26T06:57:20;13.30;;;9.00;;
19754;SDS011;10036;47.812;9.274;2023-06-26T06:59:47;14.38;;;9.43;;
19754;SDS011;10036;47.812;9.274;2023-06-26T07:02:14;11.15;;;7.80;;
19754;SDS011;10036;47.812;9.274;2023-06-26T07:04:42;9.10;;;7.22;;
19754;SDS011;10036;47.812;9.274;2023-06-26T07:07:09;12.07;;;8.45;;
19754;SDS011;10036;47.812;9.274;2023-06-26T07:09:37;10.70;;;8.30;;
19754;SDS011;10036;47.812;9.274;2023-06-26T07:12:04;10.13;;;7.88;;
19754;SDS011;10036;47.812;9.274;2023-06-26T07:14:32;10.13;;;7.53;;
19754;SDS011;10036;47.812;9.274;2023-06-26T07:16:58;8.60;;;7.70;;
19754;SDS011;10036;47.812;9.274;2023-06-26T07:19:25;13.27;;;8.80;;
19754;SDS011;10036;47.812;9.274;2023-06-26T07:21:52;9.80;;;7.63;;
19754;SDS011;10036;47.812;9.274;2023-06-26T07:24:19;10.90;;;8.32;;
19754;SDS011;10036;47.812;9.274;2023-06-26T07:26:47;10.80;;;8.10;;
19754;SDS011;10036;47.812;9.274;2023-06-26T07:29:14;8.57;;;7.25;;
19754;SDS011;10036;47.812;9.274;2023-06-26T07:31:41;10.32;;;8.02;;
19754;SDS011;10036;47.812;9.274;2023-06-26T07:34:09;12.52;;;8.32;;
19754;SDS011;10036;47.812;9.274;2023-06-26T07:36:36;9.73;;;8.20;;
19754;SDS011;10036;47.812;9.274;2023-06-26T07:39:03;9.52;;;8.52;;
19754;SDS011;10036;47.812;9.274;2023-06-26T07:41:30;8.82;;;7.93;;
19754;SDS011;10036;47.812;9.274;2023-06-26T07:43:58;9.45;;;7.95;;
19754;SDS011;10036;47.812;9.274;2023-06-26T07:46:25;9.43;;;8.05;;
19754;SDS011;10036;47.812;9.274;2023-06-26T07:48:52;8.27;;;7.32;;
19754;SDS011;10036;47.812;9.274;2023-06-26T07:51:19;8.45;;;7.65;;
19754;SDS011;10036;47.812;9.274;2023-06-26T07:53:46;10.07;;;7.40;;
19754;SDS011;10036;47.812;9.274;2023-06-26T07:56:13;8.27;;;7.45;;
19754;SDS011;10036;47.812;9.274;2023-06-26T07:58:39;7.55;;;6.80;;
19754;SDS011;10036;47.812;9.274;2023-06-26T08:01:08;7.45;;;6.63;;
19754;SDS011;10036;47.812;9.274;2023-06-26T08:03:35;8.48;;;6.97;;
19754;SDS011;10036;47.812;9.274;2023-06-26T08:06:02;10.85;;;7.68;;
19754;SDS011;10036;47.812;9.274;2023-06-26T08:08:29;8.57;;;6.95;;
19754;SDS011;10036;47.812;9.274;2023-06-26T08:10:56;9.57;;;6.82;;
19754;SDS011;10036;47.812;9.274;2023-06-26T08:13:23;8.00;;;6.72;;
19754;SDS011;10036;47.812;9.274;2023-06-26T08:15:50;10.55;;;7.25;;
19754;SDS011;10036;47.812;9.274;2023-06-26T08:18:18;23.90;;;7.57;;
19754;SDS011;10036;47.812;9.274;2023-06-26T08:20:45;8.27;;;7.35;;
19754;SDS011;10036;47.812;9.274;2023-06-26T08:23:12;8.00;;;7.20;;
19754;SDS011;10036;47.812;9.274;2023-06-26T08:25:39;8.43;;;6.88;;
19754;SDS011;10036;47.812;9.274;2023-06-26T08:28:06;10.90;;;7.50;;
19754;SDS011;10036;47.812;9.274;2023-06-26T08:30:33;8.95;;;7.30;;
19754;SDS011;10036;47.812;9.274;2023-06-26T08:32:59;7.57;;;6.88;;
19754;SDS011;10036;47.812;9.274;2023-06-26T08:35:28;7.80;;;6.95;;
19754;SDS011;10036;47.812;9.274;2023-06-26T08:37:55;7.72;;;6.90;;
19754;SDS011;10036;47.812;9.274;2023-06-26T08:40:21;8.93;;;6.70;;
19754;SDS011;10036;47.812;9.274;2023-06-26T08:42:48;7.90;;;6.90;;
19754;SDS011;10036;47.812;9.274;2023-06-26T08:45:18;9.07;;;7.30;;
19754;SDS011;10036;47.812;9.274;2023-06-26T08:47:45;9.32;;;6.90;;
19754;SDS011;10036;47.812;9.274;2023-06-26T08:50:17;7.78;;;6.97;;
19754;SDS011;10036;47.812;9.274;2023-06-26T08:52:52;7.72;;;7.03;;
19754;SDS011;10036;47.812;9.274;2023-06-26T08:55:24;8.18;;;6.93;;
19754;SDS011;10036;47.812;9.274;2023-06-26T08:57:53;9.02;;;7.15;;
19754;SDS011;10036;47.812;9.274;2023-06-26T09:00:20;9.00;;;6.88;;
19754;SDS011;10036;47.812;9.274;2023-06-26T09:02:48;8.20;;;7.07;;
19754;SDS011;10036;47.812;9.274;2023-06-26T09:05:15;9.57;;;7.43;;
19754;SDS011;10036;47.812;9.274;2023-06-26T09:07:41;8.75;;;7.20;;
19754;SDS011;10036;47.812;9.274;2023-06-26T09:10:10;9.13;;;6.90;;
19754;SDS011;10036;47.812;9.274;2023-06-26T09:12:37;9.48;;;7.00;;
19754;SDS011;10036;47.812;9.274;2023-06-26T09:15:04;7.90;;;7.07;;
19754;SDS011;10036;47.812;9.274;2023-06-26T09:17:33;8.40;;;6.57;;
19754;SDS011;10036;47.812;9.274;2023-06-26T09:20:05;8.95;;;6.65;;
19754;SDS011;10036;47.812;9.274;2023-06-26T09:22:35;8.07;;;7.28;;
19754;SDS011;10036;47.812;9.274;2023-06-26T09:25:03;8.35;;;6.97;;
19754;SDS011;10036;47.812;9.274;2023-06-26T09:27:33;8.50;;;7.32;;
19754;SDS011;10036;47.812;9.274;2023-06-26T09:30:01;9.65;;;7.15;;
19754;SDS011;10036;47.812;9.274;2023-06-26T09:32:29;9.18;;;7.18;;
19754;SDS011;10036;47.812;9.274;2023-06-26T09:34:56;8.88;;;6.70;;
19754;SDS011;10036;47.812;9.274;2023-06-26T09:37:25;8.85;;;7.05;;
19754;SDS011;10036;47.812;9.274;2023-06-26T09:39:52;8.90;;;6.65;;
19754;SDS011;10036;47.812;9.274;2023-06-26T09:42:19;8.18;;;7.25;;
19754;SDS011;10036;47.812;9.274;2023-06-26T09:44:48;7.95;;;6.97;;
19754;SDS011;10036;47.812;9.274;2023-06-26T09:47:16;9.13;;;6.68;;
19754;SDS011;10036;47.812;9.274;2023-06-26T09:49:44;7.80;;;6.88;;
19754;SDS011;10036;47.812;9.274;2023-06-26T09:52:13;8.10;;;7.30;;
19754;SDS011;10036;47.812;9.274;2023-06-26T09:54:41;7.60;;;6.60;;
19754;SDS011;10036;47.812;9.274;2023-06-26T09:57:10;11.00;;;6.70;;
19754;SDS011;10036;47.812;9.274;2023-06-26T09:59:37;7.38;;;6.68;;
19754;SDS011;10036;47.812;9.274;2023-06-26T10:02:07;10.80;;;7.65;;
19754;SDS011;10036;47.812;9.274;2023-06-26T10:04:35;7.90;;;6.32;;
19754;SDS011;10036;47.812;9.274;2023-06-26T10:07:04;9.45;;;6.88;;
19754;SDS011;10036;47.812;9.274;2023-06-26T10:09:32;7.80;;;6.90;;
19754;SDS011;10036;47.812;9.274;2023-06-26T10:12:01;9.20;;;6.88;;
19754;SDS011;10036;47.812;9.274;2023-06-26T10:14:31;7.28;;;6.57;;
19754;SDS011;10036;47.812;9.274;2023-06-26T10:17:01;7.45;;;6.38;;
19754;SDS011;10036;47.812;9.274;2023-06-26T10:19:33;9.55;;;6.82;;
19754;SDS011;10036;47.812;9.274;2023-06-26T10:22:02;7.40;;;6.50;;
19754;SDS011;10036;47.812;9.274;2023-06-26T10:24:31;8.27;;;7.03;;
19754;SDS011;10036;47.812;9.274;2023-06-26T10:27:02;7.68;;;6.20;;
19754;SDS011;10036;47.812;9.274;2023-06-26T10:29:30;6.80;;;6.20;;
19754;SDS011;10036;47.812;9.274;2023-06-26T10:31:58;7.03;;;6.32;;
19754;SDS011;10036;47.812;9.274;2023-06-26T10:34:28;8.32;;;6.10;;
19754;SDS011;10036;47.812;9.274;2023-06-26T10:36:59;10.43;;;6.28;;
19754;SDS011;10036;47.812;9.274;2023-06-26T10:39:45;6.93;;;6.22;;
19754;SDS011;10036;47.812;9.274;2023-06-26T10:42:14;10.07;;;6.03;;
19754;SDS011;10036;47.812;9.274;2023-06-26T10:44:42;6.28;;;5.75;;
19754;SDS011;10036;47.812;9.274;2023-06-26T10:47:10;8.73;;;5.57;;
19754;SDS011;10036;47.812;9.274;2023-06-26T10:49:37;8.10;;;5.70;;
19754;SDS011;10036;47.812;9.274;2023-06-26T10:52:06;5.70;;;4.95;;
19754;SDS011;10036;47.812;9.274;2023-06-26T10:54:34;6.53;;;5.40;;
19754;SDS011;10036;47.812;9.274;2023-06-26T10:57:03;6.05;;;5.45;;
19754;SDS011;10036;47.812;9.274;2023-06-26T10:59:33;6.38;;;5.78;;
19754;SDS011;10036;47.812;9.274;2023-06-26T11:02:00;8.10;;;5.70;;
19754;SDS011;10036;47.812;9.274;2023-06-26T11:04:38;7.45;;;5.95;;
19754;SDS011;10036;47.812;9.274;2023-06-26T11:07:16;6.28;;;5.68;;
19754;SDS011;10036;47.812;9.274;2023-06-26T11:09:58;9.38;;;6.03;;
19754;SDS011;10036;47.812;9.274;2023-06-26T11:12:36;6.32;;;5.72;;
19754;SDS011;10036;47.812;9.274;2023-06-26T11:15:04;6.90;;;5.63;;
19754;SDS011;10036;47.812;9.274;2023-06-26T11:17:34;6.22;;;4.97;;
19754;SDS011;10036;47.812;9.274;2023-06-26T11:20:01;5.90;;;5.38;;
19754;SDS011;10036;47.812;9.274;2023-06-26T11:22:31;6.30;;;5.20;;
19754;SDS011;10036;47.812;9.274;2023-06-26T11:25:00;8.82;;;6.07;;
19754;SDS011;10036;47.812;9.274;2023-06-26T11:27:31;6.72;;;6.00;;
19754;SDS011;10036;47.812;9.274;2023-06-26T11:29:58;8.10;;;5.82;;
19754;SDS011;10036;47.812;9.274;2023-06-26T11:32:26;11.10;;;5.75;;
19754;SDS011;10036;47.812;9.274;2023-06-26T11:34:53;6.95;;;6.15;;
19754;SDS011;10036;47.812;9.274;2023-06-26T11:37:20;6.93;;;5.88;;
19754;SDS011;10036;47.812;9.274;2023-06-26T11:39:49;8.55;;;6.18;;
19754;SDS011;10036;47.812;9.274;2023-06-26T11:42:17;6.35;;;5.65;;
19754;SDS011;10036;47.812;9.274;2023-06-26T11:44:44;8.80;;;5.90;;
19754;SDS011;10036;47.812;9.274;2023-06-26T11:47:14;9.82;;;6.15;;
19754;SDS011;10036;47.812;9.274;2023-06-26T11:49:42;6.05;;;5.47;;
19754;SDS011;10036;47.812;9.274;2023-06-26T11:52:09;6.28;;;5.68;;
19754;SDS011;10036;47.812;9.274;2023-06-26T11:54:36;6.38;;;5.72;;
19754;SDS011;10036;47.812;9.274;2023-06-26T11:57:05;6.10;;;5.50;;
19754;SDS011;10036;47.812;9.274;2023-06-26T11:59:35;7.78;;;5.65;;
19754;SDS011;10036;47.812;9.274;2023-06-26T12:02:06;9.70;;;5.30;;
19754;SDS011;10036;47.812;9.274;2023-06-26T12:04:35;7.47;;;6.05;;
19754;SDS011;10036;47.812;9.274;2023-06-26T12:07:04;7.20;;;5.43;;
19754;SDS011;10036;47.812;9.274;2023-06-26T12:09:34;8.18;;;6.00;;
19754;SDS011;10036;47.812;9.274;2023-06-26T12:12:07;8.00;;;5.38;;
19754;SDS011;10036;47.812;9.274;2023-06-26T12:14:35;5.70;;;5.05;;
19754;SDS011;10036;47.812;9.274;2023-06-26T12:17:09;8.43;;;5.95;;
19754;SDS011;10036;47.812;9.274;2023-06-26T12:19:37;6.60;;;5.15;;
19754;SDS011;10036;47.812;9.274;2023-06-26T12:22:06;8.38;;;6.05;;
19754;SDS011;10036;47.812;9.274;2023-06-26T12:24:33;7.25;;;5.90;;
19754;SDS011;10036;47.812;9.274;2023-06-26T12:27:06;6.53;;;5.78;;
19754;SDS011;10036;47.812;9.274;2023-06-26T12:29:35;6.00;;;5.40;;
19754;SDS011;10036;47.812;9.274;2023-06-26T12:32:04;6.25;;;5.65;;
19754;SDS011;10036;47.812;9.274;2023-06-26T12:34:35;7.90;;;5.75;;
19754;SDS011;10036;47.812;9.274;2023-06-26T12:37:04;6.63;;;5.75;;
19754;SDS011;10036;47.812;9.274;2023-06-26T12:39:44;8.13;;;5.38;;
19754;SDS011;10036;47.812;9.274;2023-06-26T12:42:14;7.55;;;5.63;;
19754;SDS011;10036;47.812;9.274;2023-06-26T12:44:42;8.70;;;6.15;;
19754;SDS011;10036;47.812;9.274;2023-06-26T12:47:09;6.80;;;6.10;;
19754;SDS011;10036;47.812;9.274;2023-06-26T12:49:38;9.25;;;5.95;;
19754;SDS011;10036;47.812;9.274;2023-06-26T12:52:06;8.05;;;5.88;;
19754;SDS011;10036;47.812;9.274;2023-06-26T12:54:34;9.95;;;5.78;;
19754;SDS011;10036;47.812;9.274;2023-06-26T12:57:02;6.65;;;5.82;;
19754;SDS011;10036;47.812;9.274;2023-06-26T12:59:31;6.43;;;5.70;;
19754;SDS011;10036;47.812;9.274;2023-06-26T13:01:59;12.23;;;6.15;;
19754;SDS011;10036;47.812;9.274;2023-06-26T13:04:26;8.05;;;5.93;;
19754;SDS011;10036;47.812;9.274;2023-06-26T13:06:56;7.80;;;6.43;;
19754;SDS011;10036;47.812;9.274;2023-06-26T13:09:23;8.00;;;6.68;;
19754;SDS011;10036;47.812;9.274;2023-06-26T13:11:50;7.63;;;5.88;;
19754;SDS011;10036;47.812;9.274;2023-06-26T13:14:18;12.50;;;6.80;;
19754;SDS011;10036;47.812;9.274;2023-06-26T13:16:46;8.90;;;6.18;;
19754;SDS011;10036;47.812;9.274;2023-06-26T13:19:13;9.73;;;5.95;;
19754;SDS011;10036;47.812;9.274;2023-06-26T13:21:40;8.82;;;6.57;;
19754;SDS011;10036;47.812;9.274;2023-06-26T13:24:08;9.75;;;6.32;;
19754;SDS011;10036;47.812;9.274;2023-06-26T13:26:34;11.52;;;6.38;;
19754;SDS011;10036;47.812;9.274;2023-06-26T13:29:02;6.45;;;5.85;;
19754;SDS011;10036;47.812;9.274;2023-06-26T13:31:29;5.90;;;5.28;;
19754;SDS011;10036;47.812;9.274;2023-06-26T13:33:58;8.45;;;6.13;;
19754;SDS011;10036;47.812;9.274;2023-06-26T13:36:26;6.38;;;5.70;;
19754;SDS011;10036;47.812;9.274;2023-06-26T13:38:52;7.45;;;6.38;;
19754;SDS011;10036;47.812;9.274;2023-06-26T13:41:21;6.30;;;5.70;;
19754;SDS011;10036;47.812;9.274;2023-06-26T13:43:48;6.43;;;5.63;;
19754;SDS011;10036;47.812;9.274;2023-06-26T13:46:15;8.10;;;6.05;;
19754;SDS011;10036;47.812;9.274;2023-06-26T13:48:42;7.47;;;5.60;;
19754;SDS011;10036;47.812;9.274;2023-06-26T13:51:11;7.03;;;6.00;;
19754;SDS011;10036;47.812;9.274;2023-06-26T13:53:38;6.30;;;5.70;;
19754;SDS011;10036;47.812;9.274;2023-06-26T13:56:05;7.32;;;6.40;;
19754;SDS011;10036;47.812;9.274;2023-06-26T13:58:34;8.05;;;6.43;;
19754;SDS011;10036;47.812;9.274;2023-06-26T14:01:01;7.00;;;6.13;;
19754;SDS011;10036;47.812;9.274;2023-06-26T14:03:29;9.43;;;6.55;;
19754;SDS011;10036;47.812;9.274;2023-06-26T14:05:55;8.27;;;6.70;;
19754;SDS011;10036;47.812;9.274;2023-06-26T14:08:24;7.25;;;6.55;;
19754;SDS011;10036;47.812;9.274;2023-06-26T14:10:51;6.20;;;5.57;;
19754;SDS011;10036;47.812;9.274;2023-06-26T14:13:17;6.72;;;6.13;;
19754;SDS011;10036;47.812;9.274;2023-06-26T14:15:44;10.48;;;6.28;;
19754;SDS011;10036;47.812;9.274;2023-06-26T14:18:11;14.23;;;6.97;;
19754;SDS011;10036;47.812;9.274;2023-06-26T14:20:38;7.75;;;6.75;;
19754;SDS011;10036;47.812;9.274;2023-06-26T14:23:06;7.85;;;6.70;;
19754;SDS011;10036;47.812;9.274;2023-06-26T14:25:34;7.70;;;6.63;;
19754;SDS011;10036;47.812;9.274;2023-06-26T14:28:01;8.30;;;6.47;;
19754;SDS011;10036;47.812;9.274;2023-06-26T14:30:28;7.00;;;6.30;;
19754;SDS011;10036;47.812;9.274;2023-06-26T14:32:55;9.90;;;6.35;;
19754;SDS011;10036;47.812;9.274;2023-06-26T14:35:22;11.07;;;6.22;;
19754;SDS011;10036;47.812;9.274;2023-06-26T14:37:49;8.13;;;6.45;;
19754;SDS011;10036;47.812;9.274;2023-06-26T14:40:15;8.32;;;6.53;;
19754;SDS011;10036;47.812;9.274;2023-06-26T14:42:44;8.75;;;6.47;;
19754;SDS011;10036;47.812;9.274;2023-06-26T14:45:11;8.40;;;6.05;;
19754;SDS011;10036;47.812;9.274;2023-06-26T14:47:38;7.28;;;6.47;;